sensor_id;sensor_type;location;lat;lon;timestamp;temperature;humidity
64858;SHT30;51335;51.148;6.950;2023-02-03T00:00:18;8.80;93.56
64858;SHT30;51335;51.148;6.950;2023-02-03T00:00:48;8.84;93.53
64858;SHT30;51335;51.148;6.950;2023-02-03T00:01:18;8.80;93.50
64858;SHT30;51335;51.148;6.950;2023-02-03T00:01:48;8.77;93.49
64858;SHT30;51335;51.148;6.950;2023-02-03T00:02:19;8.71;93.58
64858;SHT30;51335;51.148;6.950;2023-02-03T00:02:49;8.77;93.60
64858;SHT30;51335;51.148;6.950;2023-02-03T00:03:19;8.75;93.35
64858;SHT30;51335;51.148;6.950;2023-02-03T00:03:50;8.70;93.45
64858;SHT30;51335;51.148;6.950;2023-02-03T00:04:20;8.74;93.60
64858;SHT30;51335;51.148;6.950;2023-02-03T00:04:50;8.70;93.55
64858;SHT30;51335;51.148;6.950;2023-02-03T00:05:21;8.71;93.53
64858;SHT30;51335;51.148;6.950;2023-02-03T00:05:51;8.68;93.54
64858;SHT30;51335;51.148;6.950;2023-02-03T00:06:22;8.73;93.66
64858;SHT30;51335;51.148;6.950;2023-02-03T00:06:52;8.73;93.57
64858;SHT30;51335;51.148;6.950;2023-02-03T00:07:23;8.70;93.55
64858;SHT30;51335;51.148;6.950;2023-02-03T00:07:53;8.71;93.58
64858;SHT30;51335;51.148;6.950;2023-02-03T00:08:23;8.73;93.62
64858;SHT30;51335;51.148;6.950;2023-02-03T00:08:54;8.71;93.64
64858;SHT30;51335;51.148;6.950;2023-02-03T00:09:26;8.71;93.63
64858;SHT30;51335;51.148;6.950;2023-02-03T00:09:56;8.74;93.68
64858;SHT30;51335;51.148;6.950;2023-02-03T00:10:27;8.75;93.63
64858;SHT30;51335;51.148;6.950;2023-02-03T00:10:58;8.78;93.49
64858;SHT30;51335;51.148;6.950;2023-02-03T00:11:29;8.80;93.37
64858;SHT30;51335;51.148;6.950;2023-02-03T00:12:00;8.75;93.31
64858;SHT30;51335;51.148;6.950;2023-02-03T00:12:30;8.77;93.43
64858;SHT30;51335;51.148;6.950;2023-02-03T00:13:01;8.78;93.40
64858;SHT30;51335;51.148;6.950;2023-02-03T00:13:31;8.77;93.37
64858;SHT30;51335;51.148;6.950;2023-02-03T00:14:02;8.74;93.51
64858;SHT30;51335;51.148;6.950;2023-02-03T00:14:33;8.74;93.55
64858;SHT30;51335;51.148;6.950;2023-02-03T00:15:03;8.77;93.51
64858;SHT30;51335;51.148;6.950;2023-02-03T00:15:34;8.70;93.17
64858;SHT30;51335;51.148;6.950;2023-02-03T00:16:04;8.67;93.43
64858;SHT30;51335;51.148;6.950;2023-02-03T00:16:35;8.71;93.28
64858;SHT30;51335;51.148;6.950;2023-02-03T00:17:05;8.73;93.21
64858;SHT30;51335;51.148;6.950;2023-02-03T00:17:35;8.77;93.12
64858;SHT30;51335;51.148;6.950;2023-02-03T00:18:05;8.81;93.15
64858;SHT30;51335;51.148;6.950;2023-02-03T00:18:36;8.77;93.05
64858;SHT30;51335;51.148;6.950;2023-02-03T00:19:06;8.80;93.13
64858;SHT30;51335;51.148;6.950;2023-02-03T00:19:36;8.81;93.07
64858;SHT30;51335;51.148;6.950;2023-02-03T00:20:07;8.82;92.97
64858;SHT30;51335;51.148;6.950;2023-02-03T00:20:37;8.82;92.98
64858;SHT30;51335;51.148;6.950;2023-02-03T00:21:08;8.80;93.05
64858;SHT30;51335;51.148;6.950;2023-02-03T00:21:38;8.82;93.12
64858;SHT30;51335;51.148;6.950;2023-02-03T00:22:08;8.77;93.07
64858;SHT30;51335;51.148;6.950;2023-02-03T00:22:38;8.82;93.19
64858;SHT30;51335;51.148;6.950;2023-02-03T00:23:09;8.77;93.20
64858;SHT30;51335;51.148;6.950;2023-02-03T00:23:41;8.74;93.13
64858;SHT30;51335;51.148;6.950;2023-02-03T00:24:11;8.71;93.33
64858;SHT30;51335;51.148;6.950;2023-02-03T00:24:41;8.75;93.30
64858;SHT30;51335;51.148;6.950;2023-02-03T00:25:12;8.77;93.11
64858;SHT30;51335;51.148;6.950;2023-02-03T00:25:42;8.80;93.04
64858;SHT30;51335;51.148;6.950;2023-02-03T00:26:15;8.78;92.99
64858;SHT30;51335;51.148;6.950;2023-02-03T00:26:45;8.77;93.09
64858;SHT30;51335;51.148;6.950;2023-02-03T00:27:15;8.78;93.03
64858;SHT30;51335;51.148;6.950;2023-02-03T00:27:46;8.82;92.90
64858;SHT30;51335;51.148;6.950;2023-02-03T00:28:16;8.77;92.87
64858;SHT30;51335;51.148;6.950;2023-02-03T00:28:46;8.75;93.00
64858;SHT30;51335;51.148;6.950;2023-02-03T00:29:17;8.77;93.06
64858;SHT30;51335;51.148;6.950;2023-02-03T00:29:47;8.73;93.16
64858;SHT30;51335;51.148;6.950;2023-02-03T00:30:17;8.70;93.29
64858;SHT30;51335;51.148;6.950;2023-02-03T00:30:48;8.70;93.30
64858;SHT30;51335;51.148;6.950;2023-02-03T00:31:22;8.73;93.22
64858;SHT30;51335;51.148;6.950;2023-02-03T00:31:53;8.70;93.28
64858;SHT30;51335;51.148;6.950;2023-02-03T00:32:23;8.71;93.29
64858;SHT30;51335;51.148;6.950;2023-02-03T00:32:54;8.74;93.32
64858;SHT30;51335;51.148;6.950;2023-02-03T00:33:24;8.71;93.28
64858;SHT30;51335;51.148;6.950;2023-02-03T00:33:55;8.73;93.28
64858;SHT30;51335;51.148;6.950;2023-02-03T00:34:29;8.73;93.21
64858;SHT30;51335;51.148;6.950;2023-02-03T00:35:00;8.77;93.21
64858;SHT30;51335;51.148;6.950;2023-02-03T00:35:30;8.78;93.05
64858;SHT30;51335;51.148;6.950;2023-02-03T00:36:05;8.74;93.02
64858;SHT30;51335;51.148;6.950;2023-02-03T00:36:35;8.73;93.14
64858;SHT30;51335;51.148;6.950;2023-02-03T00:37:05;8.75;93.13
64858;SHT30;51335;51.148;6.950;2023-02-03T00:37:35;8.75;93.07
64858;SHT30;51335;51.148;6.950;2023-02-03T00:38:06;8.73;93.14
64858;SHT30;51335;51.148;6.950;2023-02-03T00:38:36;8.68;93.35
64858;SHT30;51335;51.148;6.950;2023-02-03T00:39:06;8.63;93.47
64858;SHT30;51335;51.148;6.950;2023-02-03T00:39:36;8.61;93.60
64858;SHT30;51335;51.148;6.950;2023-02-03T00:40:07;8.61;93.63
64858;SHT30;51335;51.148;6.950;2023-02-03T00:40:37;8.63;93.64
64858;SHT30;51335;51.148;6.950;2023-02-03T00:41:08;8.64;93.65
64858;SHT30;51335;51.148;6.950;2023-02-03T00:41:38;8.64;93.54
64858;SHT30;51335;51.148;6.950;2023-02-03T00:42:08;8.67;93.49
64858;SHT30;51335;51.148;6.950;2023-02-03T00:42:38;8.70;93.33
64858;SHT30;51335;51.148;6.950;2023-02-03T00:43:09;8.75;93.26
64858;SHT30;51335;51.148;6.950;2023-02-03T00:43:39;8.75;93.08
64858;SHT30;51335;51.148;6.950;2023-02-03T00:44:09;8.71;93.16
64858;SHT30;51335;51.148;6.950;2023-02-03T00:44:39;8.74;93.20
64858;SHT30;51335;51.148;6.950;2023-02-03T00:45:10;8.75;93.11
64858;SHT30;51335;51.148;6.950;2023-02-03T00:45:41;8.74;93.15
64858;SHT30;51335;51.148;6.950;2023-02-03T00:46:11;8.77;93.01
64858;SHT30;51335;51.148;6.950;2023-02-03T00:46:42;8.74;93.05
64858;SHT30;51335;51.148;6.950;2023-02-03T00:47:12;8.70;93.24
64858;SHT30;51335;51.148;6.950;2023-02-03T00:47:42;8.73;93.24
64858;SHT30;51335;51.148;6.950;2023-02-03T00:48:13;8.75;93.13
64858;SHT30;51335;51.148;6.950;2023-02-03T00:48:43;8.80;93.14
64858;SHT30;51335;51.148;6.950;2023-02-03T00:49:13;8.81;93.00
64858;SHT30;51335;51.148;6.950;2023-02-03T00:49:43;8.80;93.02
64858;SHT30;51335;51.148;6.950;2023-02-03T00:50:14;8.84;93.03
64858;SHT30;51335;51.148;6.950;2023-02-03T00:50:46;8.81;93.05
64858;SHT30;51335;51.148;6.950;2023-02-03T00:51:16;8.82;93.07
64858;SHT30;51335;51.148;6.950;2023-02-03T00:51:46;8.80;92.99
64858;SHT30;51335;51.148;6.950;2023-02-03T00:52:17;8.77;93.00
64858;SHT30;51335;51.148;6.950;2023-02-03T00:52:47;8.78;93.13
64858;SHT30;51335;51.148;6.950;2023-02-03T00:53:17;8.78;93.09
64858;SHT30;51335;51.148;6.950;2023-02-03T00:53:48;8.82;92.99
64858;SHT30;51335;51.148;6.950;2023-02-03T00:54:18;8.80;92.87
64858;SHT30;51335;51.148;6.950;2023-02-03T00:54:48;8.85;92.82
64858;SHT30;51335;51.148;6.950;2023-02-03T00:55:18;8.88;92.81
64858;SHT30;51335;51.148;6.950;2023-02-03T00:55:49;8.82;92.76
64858;SHT30;51335;51.148;6.950;2023-02-03T00:56:19;8.81;92.80
64858;SHT30;51335;51.148;6.950;2023-02-03T00:56:49;8.84;92.97
64858;SHT30;51335;51.148;6.950;2023-02-03T00:57:19;8.80;93.06
64858;SHT30;51335;51.148;6.950;2023-02-03T00:57:50;8.82;92.97
64858;SHT30;51335;51.148;6.950;2023-02-03T00:58:20;8.84;92.87
64858;SHT30;51335;51.148;6.950;2023-02-03T00:58:50;8.84;92.86
64858;SHT30;51335;51.148;6.950;2023-02-03T00:59:20;8.81;92.83
64858;SHT30;51335;51.148;6.950;2023-02-03T00:59:51;8.81;92.95
64858;SHT30;51335;51.148;6.950;2023-02-03T01:00:21;8.81;92.86
64858;SHT30;51335;51.148;6.950;2023-02-03T01:00:54;8.81;92.77
64858;SHT30;51335;51.148;6.950;2023-02-03T01:01:24;8.84;92.74
64858;SHT30;51335;51.148;6.950;2023-02-03T01:01:54;8.81;92.69
64858;SHT30;51335;51.148;6.950;2023-02-03T01:02:25;8.81;92.78
64858;SHT30;51335;51.148;6.950;2023-02-03T01:02:55;8.84;92.87
64858;SHT30;51335;51.148;6.950;2023-02-03T01:03:25;8.84;92.84
64858;SHT30;51335;51.148;6.950;2023-02-03T01:03:55;8.87;92.84
64858;SHT30;51335;51.148;6.950;2023-02-03T01:04:26;8.84;92.82
64858;SHT30;51335;51.148;6.950;2023-02-03T01:04:56;8.87;92.87
64858;SHT30;51335;51.148;6.950;2023-02-03T01:05:26;8.82;92.82
64858;SHT30;51335;51.148;6.950;2023-02-03T01:06:08;8.82;92.87
64858;SHT30;51335;51.148;6.950;2023-02-03T01:06:39;8.82;92.91
64858;SHT30;51335;51.148;6.950;2023-02-03T01:07:09;8.81;92.98
64858;SHT30;51335;51.148;6.950;2023-02-03T01:07:40;8.82;92.97
64858;SHT30;51335;51.148;6.950;2023-02-03T01:08:10;8.84;92.95
64858;SHT30;51335;51.148;6.950;2023-02-03T01:08:40;8.81;92.99
64858;SHT30;51335;51.148;6.950;2023-02-03T01:09:10;8.81;93.10
64858;SHT30;51335;51.148;6.950;2023-02-03T01:09:41;8.81;93.07
64858;SHT30;51335;51.148;6.950;2023-02-03T01:10:11;8.74;93.21
64858;SHT30;51335;51.148;6.950;2023-02-03T01:10:41;8.70;93.24
64858;SHT30;51335;51.148;6.950;2023-02-03T01:11:14;8.73;93.03
64858;SHT30;51335;51.148;6.950;2023-02-03T01:11:45;8.74;93.02
64858;SHT30;51335;51.148;6.950;2023-02-03T01:12:15;8.74;93.03
64858;SHT30;51335;51.148;6.950;2023-02-03T01:12:46;8.75;93.03
64858;SHT30;51335;51.148;6.950;2023-02-03T01:13:16;8.75;93.07
64858;SHT30;51335;51.148;6.950;2023-02-03T01:13:47;8.80;92.95
64858;SHT30;51335;51.148;6.950;2023-02-03T01:14:17;8.84;92.80
64858;SHT30;51335;51.148;6.950;2023-02-03T01:14:48;8.87;92.72
64858;SHT30;51335;51.148;6.950;2023-02-03T01:15:18;8.85;92.68
64858;SHT30;51335;51.148;6.950;2023-02-03T01:15:48;8.82;92.76
64858;SHT30;51335;51.148;6.950;2023-02-03T01:16:20;8.87;92.87
64858;SHT30;51335;51.148;6.950;2023-02-03T01:16:50;8.82;92.70
64858;SHT30;51335;51.148;6.950;2023-02-03T01:17:21;8.85;92.64
64858;SHT30;51335;51.148;6.950;2023-02-03T01:17:51;8.84;92.66
64858;SHT30;51335;51.148;6.950;2023-02-03T01:18:21;8.85;92.63
64858;SHT30;51335;51.148;6.950;2023-02-03T01:18:52;8.85;92.66
64858;SHT30;51335;51.148;6.950;2023-02-03T01:19:22;8.85;92.69
64858;SHT30;51335;51.148;6.950;2023-02-03T01:19:52;8.85;92.87
64858;SHT30;51335;51.148;6.950;2023-02-03T01:20:23;8.85;92.73
64858;SHT30;51335;51.148;6.950;2023-02-03T01:20:53;8.85;92.59
64858;SHT30;51335;51.148;6.950;2023-02-03T01:21:24;8.82;92.67
64858;SHT30;51335;51.148;6.950;2023-02-03T01:21:55;8.82;92.72
64858;SHT30;51335;51.148;6.950;2023-02-03T01:22:28;8.84;92.78
64858;SHT30;51335;51.148;6.950;2023-02-03T01:22:58;8.85;92.63
64858;SHT30;51335;51.148;6.950;2023-02-03T01:23:28;8.89;92.64
64858;SHT30;51335;51.148;6.950;2023-02-03T01:23:59;8.95;92.44
64858;SHT30;51335;51.148;6.950;2023-02-03T01:24:29;8.98;92.36
64858;SHT30;51335;51.148;6.950;2023-02-03T01:25:00;8.98;92.20
64858;SHT30;51335;51.148;6.950;2023-02-03T01:25:30;8.98;92.27
64858;SHT30;51335;51.148;6.950;2023-02-03T01:26:09;9.01;92.10
64858;SHT30;51335;51.148;6.950;2023-02-03T01:26:40;8.97;92.00
64858;SHT30;51335;51.148;6.950;2023-02-03T01:27:11;8.92;92.14
64858;SHT30;51335;51.148;6.950;2023-02-03T01:27:41;8.94;92.31
64858;SHT30;51335;51.148;6.950;2023-02-03T01:28:11;8.95;92.10
64858;SHT30;51335;51.148;6.950;2023-02-03T01:28:41;8.94;92.08
64858;SHT30;51335;51.148;6.950;2023-02-03T01:29:13;8.91;92.28
64858;SHT30;51335;51.148;6.950;2023-02-03T01:29:43;8.92;92.33
64858;SHT30;51335;51.148;6.950;2023-02-03T01:30:13;8.91;92.32
64858;SHT30;51335;51.148;6.950;2023-02-03T01:30:43;8.92;92.27
64858;SHT30;51335;51.148;6.950;2023-02-03T01:31:19;8.89;92.35
64858;SHT30;51335;51.148;6.950;2023-02-03T01:31:49;8.95;92.15
64858;SHT30;51335;51.148;6.950;2023-02-03T01:32:19;9.00;92.05
64858;SHT30;51335;51.148;6.950;2023-02-03T01:32:49;9.02;91.94
64858;SHT30;51335;51.148;6.950;2023-02-03T01:33:20;8.98;91.98
64858;SHT30;51335;51.148;6.950;2023-02-03T01:33:51;9.01;92.00
64858;SHT30;51335;51.148;6.950;2023-02-03T01:34:22;9.05;91.84
64858;SHT30;51335;51.148;6.950;2023-02-03T01:34:53;9.07;91.85
64858;SHT30;51335;51.148;6.950;2023-02-03T01:35:23;9.01;91.93
64858;SHT30;51335;51.148;6.950;2023-02-03T01:35:53;9.02;91.92
64858;SHT30;51335;51.148;6.950;2023-02-03T01:36:25;9.01;91.83
64858;SHT30;51335;51.148;6.950;2023-02-03T01:36:55;9.02;91.85
64858;SHT30;51335;51.148;6.950;2023-02-03T01:37:26;9.02;91.98
64858;SHT30;51335;51.148;6.950;2023-02-03T01:37:56;9.02;91.98
64858;SHT30;51335;51.148;6.950;2023-02-03T01:38:26;9.04;92.03
64858;SHT30;51335;51.148;6.950;2023-02-03T01:38:56;8.95;92.15
64858;SHT30;51335;51.148;6.950;2023-02-03T01:39:27;8.94;92.27
64858;SHT30;51335;51.148;6.950;2023-02-03T01:39:57;8.92;92.26
64858;SHT30;51335;51.148;6.950;2023-02-03T01:40:27;8.91;92.43
64858;SHT30;51335;51.148;6.950;2023-02-03T01:40:58;8.92;92.35
64858;SHT30;51335;51.148;6.950;2023-02-03T01:41:30;8.88;92.41
64858;SHT30;51335;51.148;6.950;2023-02-03T01:42:01;8.88;92.30
64858;SHT30;51335;51.148;6.950;2023-02-03T01:42:32;8.89;92.43
64858;SHT30;51335;51.148;6.950;2023-02-03T01:43:02;8.88;92.38
64858;SHT30;51335;51.148;6.950;2023-02-03T01:43:40;8.87;92.38
64858;SHT30;51335;51.148;6.950;2023-02-03T01:44:51;8.87;92.50
64858;SHT30;51335;51.148;6.950;2023-02-03T01:45:20;8.91;92.35
64858;SHT30;51335;51.148;6.950;2023-02-03T01:45:50;8.89;92.35
64858;SHT30;51335;51.148;6.950;2023-02-03T01:46:51;8.92;92.15
64858;SHT30;51335;51.148;6.950;2023-02-03T01:47:35;8.91;92.17
64858;SHT30;51335;51.148;6.950;2023-02-03T01:48:07;8.92;92.10
64858;SHT30;51335;51.148;6.950;2023-02-03T01:48:37;8.95;92.18
64858;SHT30;51335;51.148;6.950;2023-02-03T01:49:48;8.95;92.16
64858;SHT30;51335;51.148;6.950;2023-02-03T01:50:30;8.88;92.35
64858;SHT30;51335;51.148;6.950;2023-02-03T01:51:03;8.91;92.42
64858;SHT30;51335;51.148;6.950;2023-02-03T01:51:35;8.94;92.32
64858;SHT30;51335;51.148;6.950;2023-02-03T01:52:06;8.92;92.33
64858;SHT30;51335;51.148;6.950;2023-02-03T01:52:42;8.91;92.33
64858;SHT30;51335;51.148;6.950;2023-02-03T01:53:14;8.85;92.43
64858;SHT30;51335;51.148;6.950;2023-02-03T01:53:44;8.87;92.44
64858;SHT30;51335;51.148;6.950;2023-02-03T01:54:19;8.84;92.55
64858;SHT30;51335;51.148;6.950;2023-02-03T01:54:54;8.84;92.66
64858;SHT30;51335;51.148;6.950;2023-02-03T01:55:36;8.88;92.51
64858;SHT30;51335;51.148;6.950;2023-02-03T01:56:07;8.91;92.53
64858;SHT30;51335;51.148;6.950;2023-02-03T01:56:42;8.97;92.39
64858;SHT30;51335;51.148;6.950;2023-02-03T01:57:18;8.95;92.18
64858;SHT30;51335;51.148;6.950;2023-02-03T01:58:07;8.95;92.27
64858;SHT30;51335;51.148;6.950;2023-02-03T01:58:41;8.92;92.23
64858;SHT30;51335;51.148;6.950;2023-02-03T01:59:15;8.95;92.30
64858;SHT30;51335;51.148;6.950;2023-02-03T01:59:47;8.92;92.32
64858;SHT30;51335;51.148;6.950;2023-02-03T02:00:18;8.92;92.31
64858;SHT30;51335;51.148;6.950;2023-02-03T02:00:49;8.98;92.19
64858;SHT30;51335;51.148;6.950;2023-02-03T02:01:19;8.97;92.13
64858;SHT30;51335;51.148;6.950;2023-02-03T02:01:51;8.92;92.20
64858;SHT30;51335;51.148;6.950;2023-02-03T02:02:22;8.92;92.32
64858;SHT30;51335;51.148;6.950;2023-02-03T02:02:53;8.98;92.49
64858;SHT30;51335;51.148;6.950;2023-02-03T02:03:30;9.02;92.26
64858;SHT30;51335;51.148;6.950;2023-02-03T02:04:02;9.04;92.03
64858;SHT30;51335;51.148;6.950;2023-02-03T02:04:38;9.04;91.99
64858;SHT30;51335;51.148;6.950;2023-02-03T02:05:34;9.05;91.92
64858;SHT30;51335;51.148;6.950;2023-02-03T02:06:09;9.02;91.93
64858;SHT30;51335;51.148;6.950;2023-02-03T02:06:39;9.00;92.03
64858;SHT30;51335;51.148;6.950;2023-02-03T02:07:10;8.98;92.09
64858;SHT30;51335;51.148;6.950;2023-02-03T02:07:41;8.97;92.23
64858;SHT30;51335;51.148;6.950;2023-02-03T02:08:12;8.94;92.38
64858;SHT30;51335;51.148;6.950;2023-02-03T02:08:47;8.91;92.43
64858;SHT30;51335;51.148;6.950;2023-02-03T02:09:19;8.92;92.59
64858;SHT30;51335;51.148;6.950;2023-02-03T02:09:49;8.87;92.61
64858;SHT30;51335;51.148;6.950;2023-02-03T02:10:20;8.84;92.73
64858;SHT30;51335;51.148;6.950;2023-02-03T02:10:50;8.85;92.69
64858;SHT30;51335;51.148;6.950;2023-02-03T02:11:21;8.87;92.67
64858;SHT30;51335;51.148;6.950;2023-02-03T02:11:51;8.89;92.61
64858;SHT30;51335;51.148;6.950;2023-02-03T02:12:21;8.89;92.57
64858;SHT30;51335;51.148;6.950;2023-02-03T02:12:55;8.92;92.64
64858;SHT30;51335;51.148;6.950;2023-02-03T02:13:28;8.94;92.48
64858;SHT30;51335;51.148;6.950;2023-02-03T02:14:01;8.92;92.36
64858;SHT30;51335;51.148;6.950;2023-02-03T02:14:31;8.89;92.46
64858;SHT30;51335;51.148;6.950;2023-02-03T02:15:02;8.91;92.50
64858;SHT30;51335;51.148;6.950;2023-02-03T02:16:26;8.89;92.40
64858;SHT30;51335;51.148;6.950;2023-02-03T02:17:22;8.88;92.57
64858;SHT30;51335;51.148;6.950;2023-02-03T02:18:27;8.89;92.52
64858;SHT30;51335;51.148;6.950;2023-02-03T02:20:54;8.89;92.53
64858;SHT30;51335;51.148;6.950;2023-02-03T02:21:33;8.84;92.69
64858;SHT30;51335;51.148;6.950;2023-02-03T02:29:02;8.91;92.66
64858;SHT30;51335;51.148;6.950;2023-02-03T02:31:52;8.97;92.50
64858;SHT30;51335;51.148;6.950;2023-02-03T02:32:33;8.92;92.50
64858;SHT30;51335;51.148;6.950;2023-02-03T02:34:50;8.89;92.49
64858;SHT30;51335;51.148;6.950;2023-02-03T02:35:45;8.85;92.65
64858;SHT30;51335;51.148;6.950;2023-02-03T02:37:06;8.88;92.54
64858;SHT30;51335;51.148;6.950;2023-02-03T02:37:51;8.89;92.65
64858;SHT30;51335;51.148;6.950;2023-02-03T02:38:37;8.91;92.63
64858;SHT30;51335;51.148;6.950;2023-02-03T02:39:20;8.88;92.47
64858;SHT30;51335;51.148;6.950;2023-02-03T02:40:35;8.91;92.24
64858;SHT30;51335;51.148;6.950;2023-02-03T02:41:33;8.89;92.36
64858;SHT30;51335;51.148;6.950;2023-02-03T02:42:06;8.85;92.46
64858;SHT30;51335;51.148;6.950;2023-02-03T02:43:47;8.87;92.38
64858;SHT30;51335;51.148;6.950;2023-02-03T02:44:24;8.88;92.46
64858;SHT30;51335;51.148;6.950;2023-02-03T02:45:25;8.84;92.51
64858;SHT30;51335;51.148;6.950;2023-02-03T02:46:09;8.87;92.55
64858;SHT30;51335;51.148;6.950;2023-02-03T02:46:46;8.85;92.49
64858;SHT30;51335;51.148;6.950;2023-02-03T02:47:21;8.88;92.50
64858;SHT30;51335;51.148;6.950;2023-02-03T02:47:56;8.87;92.44
64858;SHT30;51335;51.148;6.950;2023-02-03T02:48:35;8.85;92.32
64858;SHT30;51335;51.148;6.950;2023-02-03T02:50:00;8.84;92.37
64858;SHT30;51335;51.148;6.950;2023-02-03T02:50:35;8.84;92.48
64858;SHT30;51335;51.148;6.950;2023-02-03T02:51:08;8.84;92.50
64858;SHT30;51335;51.148;6.950;2023-02-03T02:51:41;8.87;92.46
64858;SHT30;51335;51.148;6.950;2023-02-03T02:52:14;8.89;92.39
64858;SHT30;51335;51.148;6.950;2023-02-03T02:52:47;8.91;92.34
64858;SHT30;51335;51.148;6.950;2023-02-03T02:53:21;8.89;92.23
64858;SHT30;51335;51.148;6.950;2023-02-03T02:53:56;8.91;92.24
64858;SHT30;51335;51.148;6.950;2023-02-03T02:54:29;8.92;92.26
64858;SHT30;51335;51.148;6.950;2023-02-03T02:55:06;8.91;92.39
64858;SHT30;51335;51.148;6.950;2023-02-03T02:55:39;8.84;92.64
64858;SHT30;51335;51.148;6.950;2023-02-03T02:56:11;8.85;92.48
64858;SHT30;51335;51.148;6.950;2023-02-03T02:56:44;8.85;92.53
64858;SHT30;51335;51.148;6.950;2023-02-03T02:57:19;8.89;92.41
64858;SHT30;51335;51.148;6.950;2023-02-03T02:57:52;8.89;92.19
64858;SHT30;51335;51.148;6.950;2023-02-03T02:58:25;8.92;92.23
64858;SHT30;51335;51.148;6.950;2023-02-03T02:58:58;8.85;92.33
64858;SHT30;51335;51.148;6.950;2023-02-03T02:59:31;8.87;92.48
64858;SHT30;51335;51.148;6.950;2023-02-03T03:00:02;8.92;92.40
64858;SHT30;51335;51.148;6.950;2023-02-03T03:00:34;8.91;92.34
64858;SHT30;51335;51.148;6.950;2023-02-03T03:01:07;8.88;92.35
64858;SHT30;51335;51.148;6.950;2023-02-03T03:01:37;8.91;92.25
64858;SHT30;51335;51.148;6.950;2023-02-03T03:02:09;8.89;92.33
64858;SHT30;51335;51.148;6.950;2023-02-03T03:02:40;8.92;92.27
64858;SHT30;51335;51.148;6.950;2023-02-03T03:03:44;8.95;92.23
64858;SHT30;51335;51.148;6.950;2023-02-03T03:04:18;8.91;92.25
64858;SHT30;51335;51.148;6.950;2023-02-03T03:04:49;8.91;92.38
64858;SHT30;51335;51.148;6.950;2023-02-03T03:05:20;8.87;92.50
64858;SHT30;51335;51.148;6.950;2023-02-03T03:06:06;8.87;92.66
64858;SHT30;51335;51.148;6.950;2023-02-03T03:06:42;8.89;92.56
64858;SHT30;51335;51.148;6.950;2023-02-03T03:07:21;8.94;92.51
64858;SHT30;51335;51.148;6.950;2023-02-03T03:07:57;8.85;92.46
64858;SHT30;51335;51.148;6.950;2023-02-03T03:08:37;8.89;92.37
64858;SHT30;51335;51.148;6.950;2023-02-03T03:09:11;8.91;92.32
64858;SHT30;51335;51.148;6.950;2023-02-03T03:09:46;8.88;92.33
64858;SHT30;51335;51.148;6.950;2023-02-03T03:10:20;8.92;92.38
64858;SHT30;51335;51.148;6.950;2023-02-03T03:10:52;8.88;92.41
64858;SHT30;51335;51.148;6.950;2023-02-03T03:11:26;8.89;92.42
64858;SHT30;51335;51.148;6.950;2023-02-03T03:12:03;8.91;92.37
64858;SHT30;51335;51.148;6.950;2023-02-03T03:12:37;8.92;92.22
64858;SHT30;51335;51.148;6.950;2023-02-03T03:13:17;8.92;92.28
64858;SHT30;51335;51.148;6.950;2023-02-03T03:13:51;8.97;92.18
64858;SHT30;51335;51.148;6.950;2023-02-03T03:14:24;8.98;92.01
64858;SHT30;51335;51.148;6.950;2023-02-03T03:15:00;8.95;92.06
64858;SHT30;51335;51.148;6.950;2023-02-03T03:15:33;8.88;92.15
64858;SHT30;51335;51.148;6.950;2023-02-03T03:16:06;8.89;92.12
64858;SHT30;51335;51.148;6.950;2023-02-03T03:16:43;8.91;92.19
64858;SHT30;51335;51.148;6.950;2023-02-03T03:17:25;8.92;92.16
64858;SHT30;51335;51.148;6.950;2023-02-03T03:18:16;8.91;92.19
64858;SHT30;51335;51.148;6.950;2023-02-03T03:18:58;8.91;92.32
64858;SHT30;51335;51.148;6.950;2023-02-03T03:19:33;8.88;92.27
64858;SHT30;51335;51.148;6.950;2023-02-03T03:20:09;8.87;92.36
64858;SHT30;51335;51.148;6.950;2023-02-03T03:20:42;8.85;92.46
64858;SHT30;51335;51.148;6.950;2023-02-03T03:21:19;8.88;92.55
64858;SHT30;51335;51.148;6.950;2023-02-03T03:21:54;8.91;92.52
64858;SHT30;51335;51.148;6.950;2023-02-03T03:22:31;8.91;92.41
64858;SHT30;51335;51.148;6.950;2023-02-03T03:23:06;8.84;92.37
64858;SHT30;51335;51.148;6.950;2023-02-03T03:23:38;8.85;92.43
64858;SHT30;51335;51.148;6.950;2023-02-03T03:24:13;8.81;92.50
64858;SHT30;51335;51.148;6.950;2023-02-03T03:24:49;8.75;92.79
64858;SHT30;51335;51.148;6.950;2023-02-03T03:25:30;8.73;92.90
64858;SHT30;51335;51.148;6.950;2023-02-03T03:26:25;8.73;92.94
64858;SHT30;51335;51.148;6.950;2023-02-03T03:27:33;8.77;92.68
64858;SHT30;51335;51.148;6.950;2023-02-03T03:28:11;8.82;92.75
64858;SHT30;51335;51.148;6.950;2023-02-03T03:28:56;8.81;92.64
64858;SHT30;51335;51.148;6.950;2023-02-03T03:29:35;8.78;92.70
64858;SHT30;51335;51.148;6.950;2023-02-03T03:30:14;8.77;92.70
64858;SHT30;51335;51.148;6.950;2023-02-03T03:30:46;8.73;92.82
64858;SHT30;51335;51.148;6.950;2023-02-03T03:31:18;8.71;92.96
64858;SHT30;51335;51.148;6.950;2023-02-03T03:31:49;8.70;92.93
64858;SHT30;51335;51.148;6.950;2023-02-03T03:32:19;8.68;93.01
64858;SHT30;51335;51.148;6.950;2023-02-03T03:32:50;8.68;92.97
64858;SHT30;51335;51.148;6.950;2023-02-03T03:33:21;8.65;93.05
64858;SHT30;51335;51.148;6.950;2023-02-03T03:33:52;8.73;93.08
64858;SHT30;51335;51.148;6.950;2023-02-03T03:34:22;8.77;92.81
64858;SHT30;51335;51.148;6.950;2023-02-03T03:34:53;8.71;92.87
64858;SHT30;51335;51.148;6.950;2023-02-03T03:35:30;8.68;92.92
64858;SHT30;51335;51.148;6.950;2023-02-03T03:36:15;8.68;92.87
64858;SHT30;51335;51.148;6.950;2023-02-03T03:37:00;8.78;92.87
64858;SHT30;51335;51.148;6.950;2023-02-03T03:37:35;8.82;92.69
64858;SHT30;51335;51.148;6.950;2023-02-03T03:38:21;8.81;92.53
64858;SHT30;51335;51.148;6.950;2023-02-03T03:39:03;8.82;92.36
64858;SHT30;51335;51.148;6.950;2023-02-03T03:40:20;8.78;92.68
64858;SHT30;51335;51.148;6.950;2023-02-03T03:41:04;8.82;92.37
64858;SHT30;51335;51.148;6.950;2023-02-03T03:41:43;8.81;92.47
64858;SHT30;51335;51.148;6.950;2023-02-03T03:43:19;8.73;92.86
64858;SHT30;51335;51.148;6.950;2023-02-03T03:43:51;8.73;92.76
64858;SHT30;51335;51.148;6.950;2023-02-03T03:44:28;8.74;92.74
64858;SHT30;51335;51.148;6.950;2023-02-03T03:46:25;8.65;93.01
64858;SHT30;51335;51.148;6.950;2023-02-03T03:47:15;8.68;93.15
64858;SHT30;51335;51.148;6.950;2023-02-03T03:47:52;8.70;93.02
64858;SHT30;51335;51.148;6.950;2023-02-03T03:48:35;8.67;93.05
64858;SHT30;51335;51.148;6.950;2023-02-03T03:49:09;8.70;93.07
64858;SHT30;51335;51.148;6.950;2023-02-03T03:49:42;8.73;93.01
64858;SHT30;51335;51.148;6.950;2023-02-03T03:50:18;8.80;92.73
64858;SHT30;51335;51.148;6.950;2023-02-03T03:50:57;8.75;92.63
64858;SHT30;51335;51.148;6.950;2023-02-03T03:52:09;8.81;92.53
64858;SHT30;51335;51.148;6.950;2023-02-03T03:52:44;8.81;92.40
64858;SHT30;51335;51.148;6.950;2023-02-03T03:53:16;8.82;92.51
64858;SHT30;51335;51.148;6.950;2023-02-03T03:53:49;8.78;92.37
64858;SHT30;51335;51.148;6.950;2023-02-03T03:54:22;8.81;92.38
64858;SHT30;51335;51.148;6.950;2023-02-03T03:54:54;8.78;92.45
64858;SHT30;51335;51.148;6.950;2023-02-03T03:55:26;8.74;92.59
64858;SHT30;51335;51.148;6.950;2023-02-03T03:55:59;8.74;92.65